Snapper Creek, Florida
Current Conditions -  °F | °C
As of 2:53 AM on Sunday 26 Oct 2014 (Local Time) from KTMB Reporting Station
Clear Clear  
Wind Chill: 71°   Ceiling: Unl
Heat Index: 71°   Visibility: 10mi
Dew Point: 65°   Wind: 8mph
Humidity: 81%   Direction: 350°N
Pressure: 29.92"   Gusts: NA
Location:  25.6574°N, 80.359°W
Report Text: KTMB 260653Z AUTO 35007KT 10SM CLR 22/18 A2992 RMK AO2 SLP130 T02170183 $
Loading
Personal Weather Stations






























Interactive Weather Map
Tropical Storm Tracking
New forecast layout! Learn more

10-Day Weather Forecast

Advertisements
Track Severe Weather on mobile